Thursday, April 26, 2018, 5:03 PM EDT
Back to Local

KHGR, Hagerstown Regional Airport

Location: Hagerstown, MD, United States Lat: 39.7
Local Time: 5:03 PM EDT (21:03 GMT) Lon: -77.733
Time Zone: US/Eastern Elev: 705 ft

Show me the last for .
Show Decoded

2018-04-26 15:53 METAR KHGR 261953Z 33008KT 10SM CLR 19/03 A2983 RMK AO2 SLP110 T01890028 =
2018-04-26 14:53 METAR KHGR 261853Z 29007KT 10SM CLR 18/04 A2986 RMK AO2 SLP119 T01780039 =
2018-04-26 13:53 METAR KHGR 261753Z 30016KT 10SM CLR 17/03 A2986 RMK AO2 SLP119 T01720033 10172
                 20094 58010 =
2018-04-26 12:53 METAR KHGR 261653Z 30012G19KT 10SM CLR 16/04 A2988 RMK AO2 SLP126 T01560039 =
2018-04-26 11:53 METAR KHGR 261553Z 27009G16KT 10SM CLR 14/03 A2989 RMK AO2 SLP130 T01390033 =
2018-04-26 10:53 METAR KHGR 261453Z 31009KT 10SM CLR 13/03 A2989 RMK AO2 SLP129 T01280033 50007 =
2018-04-26 09:53 METAR KHGR 261353Z 29010KT 10SM CLR 11/02 A2989 RMK AO2 SLP130 T01110022 =
2018-04-26 08:53 METAR KHGR 261253Z 30008KT 10SM FEW040 11/03 A2987 RMK AO2 SLP125 T01060028 =
2018-04-26 07:53 METAR KHGR 261153Z 30005KT 10SM FEW040 09/03 A2986 RMK AO2 SLP122 70001
                 T00940028 10094 20072 53020 =
2018-04-26 06:53 METAR KHGR 261053Z 32007KT 10SM FEW040 08/03 A2984 RMK AO2 SLP114 T00780028 =
2018-04-26 05:53 METAR KHGR 260953Z AUTO VRB06KT 10SM CLR 08/03 A2982 RMK AO2 SLP108 T00830028 =
2018-04-26 04:53 METAR KHGR 260853Z AUTO 30011KT 10SM CLR 08/03 A2980 RMK AO2 SLP101 T00830028
                 50002 =
2018-04-26 03:53 METAR KHGR 260753Z AUTO 30006KT 10SM CLR 08/03 A2980 RMK AO2 SLP102 T00780028 =
2018-04-26 02:53 METAR KHGR 260653Z AUTO 31004KT 10SM CLR 09/03 A2980 RMK AO2 SLP100 T00890028 =
2018-04-26 01:53 METAR KHGR 260553Z AUTO 31009KT 10SM CLR 09/03 A2980 RMK AO2 SLP099 T00940028
                 10172 20094 53009 =
2018-04-26 00:53 METAR KHGR 260453Z AUTO 31016G23KT 10SM CLR 11/04 A2979 RMK AO2 SLP096 T01110044
                 401890106 =
2018-04-25 23:53 METAR KHGR 260353Z AUTO 32012KT 10SM FEW039 13/07 A2978 RMK AO2 SLP092 T01330072
                 =
2018-04-25 23:01 METAR KHGR 260301Z AUTO 31016KT 10SM SCT029 OVC043 15/09 A2977 RMK AO2 T01500094
                 =
2018-04-25 22:53 METAR KHGR 260253Z AUTO 32012KT 10SM BKN029 BKN034 OVC045 16/10 A2977 RMK AO2
                 SLP088 T01560100 51017 =
2018-04-25 21:53 METAR KHGR 260153Z 30008KT 10SM SCT033 15/10 A2976 RMK AO2 SLP086 T01500100 =
2018-04-25 20:53 METAR KHGR 260053Z 30012KT 10SM OVC048 16/11 A2975 RMK AO2 SLP083 T01610111 =
2018-04-25 19:53 METAR KHGR 252353Z 30006KT 10SM BKN050 OVC090 17/12 A2972 RMK AO2 SLP072
                 T01720117 10189 20167 53006 =
2018-04-25 18:53 METAR KHGR 252253Z 33006KT 10SM OVC045 18/12 A2971 RMK AO2 SLP069 T01780117 =
2018-04-25 17:53 METAR KHGR 252153Z 32007KT 10SM BKN031 OVC039 18/13 A2970 RMK AO2 SLP065
                 T01830128 =

Support USWX by starting your Amazon purchase here.